Alpine Forest, California
Current Conditions -  °F | °C
As of 1:55 AM on Monday 22 Dec 2014 (Local Time) from KTSP Reporting Station
Haze Haze  
Wind Chill: 41°   Ceiling: 1100
Heat Index: 46°   Visibility: 5mi
Dew Point: 46°   Wind: 10mph
Humidity: 100%   Direction: 310°NW
Pressure: 30.26"   Gusts: NA
Location:  35.1338°N, 118.552°W
Report Text: KTSP 220955Z AUTO 31009KT 5SM BR SCT005 BKN011 OVC016 08/08 A3026 RMK AO2
Loading
Personal Weather Stations






























Interactive Weather Map New forecast layout! Learn more

10-Day Weather Forecast

Advertisements
Track Severe Weather on mobile